Time;durP1;ratioP1;P1;durP2;ratioP2;P2;SDS_P1;SDS_P2;PMS_P1;PMS_P2;Temp;Humidity;BMP_temperature;BMP_pressure;BME280_temperature;BME280_humidity;BME280_pressure;Samples;Min_cycle;Max_cycle;Signal;HPM_P1;HPM_P2
2021/12/02 00:01:42;;;;;;;0.20;0.10;;;20.50;27.90;21.00;92357.00;;;;10255779;28;47403;-61
2021/12/02 00:06:42;;;;;;;0.30;0.10;;;20.50;27.80;21.00;92358.00;;;;10277895;28;45424;-60
2021/12/02 00:11:43;;;;;;;0.22;0.10;;;20.50;27.90;20.90;92352.00;;;;10279524;28;46460;-59
2021/12/02 00:22:03;;;;;;;0.15;0.00;;;20.50;27.80;20.90;92364.00;;;;10277780;28;45995;-59
2021/12/02 00:27:08;;;;;;;0.10;0.10;;;20.50;27.90;20.90;92362.00;;;;10276941;28;46315;-59
2021/12/02 00:32:09;;;;;;;0.17;0.10;;;20.40;27.80;20.90;92356.00;;;;10277257;28;45268;-61
2021/12/02 00:37:11;;;;;;;0.10;0.10;;;20.40;27.80;20.90;92374.00;;;;10278914;28;45683;-60
2021/12/02 00:42:12;;;;;;;0.40;0.13;;;20.40;27.90;20.90;92367.00;;;;10278251;28;45560;-60
2021/12/02 00:47:15;;;;;;;0.00;0.00;;;20.50;27.90;20.90;92363.00;;;;10276184;28;45339;-61
2021/12/02 00:52:17;;;;;;;0.00;0.00;;;20.40;27.90;20.90;92366.00;;;;10276415;28;46569;-59
2021/12/02 00:57:18;;;;;;;0.10;0.10;;;20.40;27.90;20.90;92371.00;;;;10347718;23;45538;-61
2021/12/02 01:02:20;;;;;;;0.08;0.00;;;20.40;27.80;20.90;92358.00;;;;10364590;28;47494;-61
2021/12/02 01:07:21;;;;;;;0.52;0.10;;;20.40;27.80;20.90;92346.00;;;;10357467;28;45263;-63
2021/12/02 01:12:22;;;;;;;0.63;0.10;;;20.40;27.80;20.90;92356.00;;;;10356950;28;47353;-61
2021/12/02 01:17:22;;;;;;;0.35;0.10;;;20.40;27.80;20.90;92351.00;;;;10357072;28;46028;-62
2021/12/02 01:22:26;;;;;;;0.20;0.03;;;20.40;27.90;20.90;92366.00;;;;10358343;28;45533;-63
2021/12/02 01:27:27;;;;;;;0.10;0.00;;;20.40;27.90;20.80;92384.00;;;;10356478;28;47105;-61
2021/12/02 01:32:34;;;;;;;0.47;0.15;;;20.40;27.80;20.80;92374.00;;;;10357800;28;46320;-63
2021/12/02 01:37:34;;;;;;;0.25;0.00;;;20.40;27.80;20.80;92360.00;;;;10356001;28;45333;-65
2021/12/02 01:42:39;;;;;;;0.30;0.10;;;20.40;27.80;20.80;92373.00;;;;10357042;28;45171;-62
2021/12/02 01:47:47;;;;;;;0.00;0.00;;;20.40;27.80;20.80;92376.00;;;;10356047;28;45337;-61
2021/12/02 01:52:59;;;;;;;0.00;0.00;;;20.40;27.80;20.80;92387.00;;;;10356389;28;47210;-61
2021/12/02 01:58:04;;;;;;;0.13;0.10;;;20.30;27.80;20.80;92395.00;;;;10354928;28;46681;-65
2021/12/02 02:03:04;;;;;;;0.00;0.00;;;20.40;27.80;20.80;92391.00;;;;10349400;28;45556;-64
2021/12/02 02:08:18;;;;;;;0.17;0.10;;;20.30;27.80;20.80;92390.00;;;;10355303;28;47016;-65
2021/12/02 02:13:20;;;;;;;0.03;0.03;;;20.30;27.80;20.80;92393.00;;;;10355441;28;45429;-62
2021/12/02 02:18:23;;;;;;;0.05;0.00;;;20.30;27.80;20.80;92377.00;;;;10355509;28;45562;-62
2021/12/02 02:23:26;;;;;;;0.08;0.00;;;20.30;27.80;20.80;92387.00;;;;10356080;28;45268;-62
2021/12/02 02:28:28;;;;;;;0.10;0.10;;;20.30;27.80;20.80;92386.00;;;;10353287;28;45699;-62
2021/12/02 02:33:37;;;;;;;0.35;0.05;;;20.30;27.80;20.80;92404.00;;;;10354040;28;45431;-63
2021/12/02 02:38:38;;;;;;;0.30;0.10;;;20.30;27.80;20.80;92408.00;;;;10354217;28;48028;-64
2021/12/02 02:43:47;;;;;;;0.17;0.10;;;20.30;27.80;20.80;92397.00;;;;10355288;28;46113;-64
2021/12/02 02:48:47;;;;;;;0.08;0.08;;;20.30;27.80;20.80;92393.00;;;;10354818;28;45866;-65
2021/12/02 02:53:53;;;;;;;0.20;0.10;;;20.30;27.70;20.70;92373.00;;;;10370756;28;45414;-62
2021/12/02 03:04:22;;;;;;;0.28;0.10;;;20.30;27.70;20.70;92374.00;;;;10354932;28;45918;-61
2021/12/02 03:14:36;;;;;;;0.00;0.00;;;20.20;27.70;20.70;92376.00;;;;10353612;28;45385;-61
2021/12/02 03:19:44;;;;;;;0.20;0.03;;;20.20;27.70;20.70;92387.00;;;;10353175;28;46893;-62
2021/12/02 03:24:45;;;;;;;0.20;0.10;;;20.30;27.70;20.70;92366.00;;;;10353150;28;46365;-63
2021/12/02 03:29:45;;;;;;;0.20;0.10;;;20.30;27.70;20.70;92363.00;;;;10368474;28;45437;-63
2021/12/02 03:34:46;;;;;;;0.93;0.00;;;20.30;27.80;20.70;92360.00;;;;10369190;28;46225;-62
2021/12/02 03:39:47;;;;;;;0.17;0.00;;;20.30;27.80;20.70;92372.00;;;;10368792;28;45312;-62
2021/12/02 03:44:48;;;;;;;0.22;0.10;;;20.20;27.70;20.70;92369.00;;;;10352362;28;47215;-64
2021/12/02 03:49:48;;;;;;;1.00;0.17;;;20.30;27.70;20.70;92367.00;;;;10368011;28;45252;-61
2021/12/02 03:54:49;;;;;;;0.17;0.10;;;20.20;27.60;20.70;92346.00;;;;10352074;28;47893;-64
2021/12/02 03:59:50;;;;;;;1.65;0.10;;;20.20;27.70;20.70;92355.00;;;;10350891;28;47407;-62
2021/12/02 04:04:50;;;;;;;0.65;0.28;;;20.20;27.60;20.70;92339.00;;;;10368576;28;46070;-62
2021/12/02 04:09:52;;;;;;;0.40;0.08;;;20.30;27.70;20.70;92334.00;;;;10352210;28;45202;-62
2021/12/02 04:15:04;;;;;;;0.65;0.15;;;20.20;27.70;20.70;92346.00;;;;10351329;28;45351;-62
2021/12/02 04:20:05;;;;;;;0.52;0.15;;;20.20;27.70;20.70;92345.00;;;;10366299;28;45389;-62
2021/12/02 04:25:07;;;;;;;0.15;0.10;;;20.20;27.70;20.70;92347.00;;;;10352381;28;45591;-62
2021/12/02 04:30:13;;;;;;;1.40;0.20;;;20.20;27.70;20.70;92351.00;;;;10350568;28;47222;-62
2021/12/02 04:35:14;;;;;;;0.43;0.13;;;20.20;27.70;20.70;92341.00;;;;10351408;28;45548;-61
2021/12/02 04:40:16;;;;;;;1.17;0.20;;;20.20;27.70;20.70;92343.00;;;;10367202;28;46330;-62
2021/12/02 04:45:16;;;;;;;0.15;0.00;;;20.20;27.70;20.70;92321.00;;;;10352137;28;45327;-62
2021/12/02 04:50:17;;;;;;;0.70;0.20;;;20.20;27.60;20.70;92332.00;;;;10353195;28;46852;-62
2021/12/02 04:55:20;;;;;;;0.52;0.10;;;20.20;27.60;20.70;92335.00;;;;10356655;28;45942;-63
2021/12/02 05:00:21;;;;;;;1.00;0.10;;;20.20;27.60;20.70;92331.00;;;;10356505;28;46761;-62
2021/12/02 05:05:23;;;;;;;0.52;0.10;;;20.20;27.60;20.60;92336.00;;;;10356311;28;46810;-62
2021/12/02 05:10:23;;;;;;;0.10;0.10;;;20.20;27.60;20.70;92354.00;;;;10356520;28;47047;-63
2021/12/02 05:15:24;;;;;;;0.52;0.20;;;20.20;27.60;20.70;92336.00;;;;10373112;28;45359;-62
2021/12/02 05:20:25;;;;;;;0.57;0.13;;;20.20;27.60;20.70;92343.00;;;;10356617;28;46708;-62
2021/12/02 05:25:26;;;;;;;0.45;0.20;;;20.20;27.60;20.70;92331.00;;;;10358267;28;45656;-63
2021/12/02 05:30:27;;;;;;;1.90;0.30;;;20.30;27.60;20.80;92327.00;;;;10355533;28;48375;-65
2021/12/02 05:35:27;;;;;;;0.47;0.10;;;20.30;27.60;20.80;92334.00;;;;10372491;28;45396;-62
2021/12/02 05:40:28;;;;;;;1.33;0.20;;;20.30;27.60;20.80;92332.00;;;;10357751;28;45260;-62
2021/12/02 05:45:29;;;;;;;0.85;0.10;;;20.40;27.60;20.90;92335.00;;;;10358048;28;45268;-62
2021/12/02 05:50:30;;;;;;;1.77;0.28;;;20.40;27.60;20.90;92337.00;;;;10357768;28;45304;-62
2021/12/02 05:55:31;;;;;;;0.93;0.20;;;20.40;27.60;20.90;92331.00;;;;10372492;28;45225;-62
2021/12/02 06:00:32;;;;;;;1.10;0.20;;;20.40;27.60;20.80;92333.00;;;;10370385;28;47159;-62
2021/12/02 06:05:33;;;;;;;0.85;0.25;;;20.40;27.60;20.90;92346.00;;;;10371081;28;46670;-64
2021/12/02 06:10:33;;;;;;;0.43;0.10;;;20.40;27.50;20.90;92330.00;;;;10355408;28;47845;-61
2021/12/02 06:15:34;;;;;;;0.38;0.20;;;20.40;27.50;20.90;92325.00;;;;10371898;28;45223;-61
2021/12/02 06:20:35;;;;;;;0.50;0.20;;;20.40;27.50;20.90;92335.00;;;;10371481;28;47218;-65
2021/12/02 06:25:45;;;;;;;0.85;0.20;;;20.50;27.50;20.90;92335.00;;;;10338961;28;46339;-62
2021/12/02 06:30:46;;;;;;;0.20;0.10;;;20.50;27.50;20.90;92333.00;;;;10299274;28;47081;-65
2021/12/02 06:35:47;;;;;;;0.22;0.00;;;20.50;27.50;20.90;92327.00;;;;10314115;28;45397;-61
2021/12/02 06:40:48;;;;;;;0.10;0.00;;;20.50;27.40;21.00;92336.00;;;;10297791;28;47238;-62
2021/12/02 06:45:49;;;;;;;0.43;0.20;;;20.50;27.40;20.90;92321.00;;;;10313720;28;46458;-62
2021/12/02 06:50:49;;;;;;;0.60;0.17;;;20.50;27.40;21.00;92326.00;;;;10313803;28;46567;-61
2021/12/02 06:55:50;;;;;;;0.17;0.00;;;20.50;27.30;21.00;92324.00;;;;10314003;28;45301;-63
2021/12/02 07:00:51;;;;;;;0.10;0.10;;;20.50;27.30;21.00;92322.00;;;;10314179;28;45380;-61
2021/12/02 07:05:51;;;;;;;0.10;0.10;;;20.50;27.30;21.00;92317.00;;;;10314501;28;46451;-61
2021/12/02 07:10:52;;;;;;;0.45;0.10;;;20.50;27.30;21.00;92319.00;;;;10312545;28;46808;-63
2021/12/02 07:15:54;;;;;;;0.13;0.10;;;20.60;27.30;21.00;92313.00;;;;10312928;28;45225;-63
2021/12/02 07:20:55;;;;;;;0.55;0.30;;;20.50;27.30;21.00;92315.00;;;;10311815;28;45251;-63
2021/12/02 07:25:58;;;;;;;0.30;0.10;;;20.50;27.20;21.10;92330.00;;;;10294948;28;47346;-63
2021/12/02 07:30:59;;;;;;;0.22;0.10;;;20.60;27.30;21.10;92339.00;;;;10312626;28;45377;-63
2021/12/02 07:36:00;;;;;;;0.82;0.10;;;20.60;27.30;21.00;92329.00;;;;10311835;28;45421;-63
2021/12/02 07:41:04;;;;;;;0.50;0.10;;;20.60;27.30;21.10;92355.00;;;;10311754;28;47318;-63
2021/12/02 07:46:05;;;;;;;0.88;0.28;;;20.60;27.30;21.10;92364.00;;;;10310855;28;46694;-63
2021/12/02 07:51:12;;;;;;;3.08;0.15;;;20.60;27.30;21.10;92357.00;;;;10312700;28;46215;-64
2021/12/02 07:56:21;;;;;;;1.48;0.13;;;20.60;27.30;21.10;92346.00;;;;10326537;28;46068;-63
2021/12/02 08:01:21;;;;;;;1.08;0.30;;;20.60;27.40;21.10;92358.00;;;;10295473;28;46755;-63
2021/12/02 08:06:24;;;;;;;0.63;0.10;;;20.60;27.40;21.10;92349.00;;;;10329056;28;45153;-63
2021/12/02 08:11:24;;;;;;;1.55;0.30;;;20.60;27.40;21.10;92369.00;;;;10351244;28;47343;-63
2021/12/02 08:16:25;;;;;;;1.95;0.40;;;20.60;27.40;21.10;92351.00;;;;10352228;28;45178;-63
2021/12/02 08:21:26;;;;;;;1.02;0.32;;;20.60;27.30;21.00;92361.00;;;;10352574;28;46150;-63
2021/12/02 08:26:30;;;;;;;0.85;0.30;;;20.60;27.50;21.00;92358.00;;;;10360075;28;46748;-63
2021/12/02 08:31:30;;;;;;;1.05;0.30;;;20.50;27.50;21.00;92364.00;;;;10318119;28;48265;-63
2021/12/02 08:36:41;;;;;;;3.60;0.30;;;20.60;27.60;21.10;92363.00;;;;10317066;28;46407;-63
2021/12/02 08:41:46;;;;;;;1.50;0.20;;;20.60;27.60;21.10;92356.00;;;;10317316;28;45411;-63
2021/12/02 08:46:49;;;;;;;1.20;0.17;;;20.60;27.60;21.10;92343.00;;;;10316542;28;45222;-62
2021/12/02 08:51:51;;;;;;;0.30;0.20;;;20.60;27.60;21.10;92363.00;;;;10317294;28;46717;-63
2021/12/02 08:56:54;;;;;;;0.65;0.22;;;20.60;27.60;21.10;92370.00;;;;10315970;28;45460;-62
2021/12/02 09:01:55;;;;;;;1.60;0.20;;;20.60;27.60;21.10;92360.00;;;;10318232;28;45191;-62
2021/12/02 09:06:56;;;;;;;1.80;0.30;;;20.60;27.60;21.10;92367.00;;;;10299476;28;47347;-62
2021/12/02 09:11:57;;;;;;;1.55;0.47;;;20.60;27.60;21.10;92361.00;;;;10316630;28;45172;-62
2021/12/02 09:17:02;;;;;;;0.55;0.20;;;20.60;27.60;21.10;92377.00;;;;10299751;28;47185;-62
2021/12/02 09:22:03;;;;;;;0.60;0.17;;;20.60;27.70;21.20;92373.00;;;;10317467;28;45586;-65
2021/12/02 09:27:04;;;;;;;0.68;0.20;;;20.70;27.70;21.20;92366.00;;;;10331276;28;47347;-63
2021/12/02 09:32:06;;;;;;;0.65;0.20;;;20.70;27.70;21.20;92351.00;;;;10314707;28;45534;-67
2021/12/02 09:37:07;;;;;;;1.20;1.10;;;20.70;27.80;21.20;92366.00;;;;10315106;28;45340;-64
2021/12/02 09:42:10;;;;;;;0.73;0.20;;;20.70;27.90;21.30;92374.00;;;;10314556;28;47860;-66
2021/12/02 09:47:12;;;;;;;0.93;0.10;;;20.80;28.10;21.30;92352.00;;;;10297536;28;47818;-67
2021/12/02 09:52:15;;;;;;;0.43;0.20;;;20.70;28.00;21.20;92361.00;;;;10312933;28;45242;-65
2021/12/02 09:57:19;;;;;;;0.40;0.30;;;20.80;27.80;21.20;92371.00;;;;10330490;28;46052;-68
2021/12/02 10:02:21;;;;;;;1.67;0.25;;;20.70;27.70;21.20;92348.00;;;;10330661;28;45558;-62
2021/12/02 10:07:42;;;;;;;0.50;0.30;;;20.70;28.20;21.20;92358.00;;;;10330528;28;45615;-63
2021/12/02 10:13:21;;;;;;;1.63;0.25;;;20.70;28.20;21.20;92340.00;;;;10312483;28;45338;-62
2021/12/02 10:18:34;;;;;;;0.90;0.32;;;20.70;28.20;21.20;92339.00;;;;10314339;28;46472;-62
2021/12/02 10:23:45;;;;;;;0.28;0.17;;;20.70;28.20;21.20;92335.00;;;;10312880;28;46575;-62
2021/12/02 10:28:51;;;;;;;1.55;0.20;;;20.70;28.30;21.20;92324.00;;;;10313984;28;46562;-62
2021/12/02 10:34:04;;;;;;;1.75;0.10;;;20.70;28.30;21.20;92323.00;;;;10314266;28;45587;-64
2021/12/02 10:39:18;;;;;;;0.93;0.15;;;20.70;28.30;21.20;92304.00;;;;10341919;28;47119;-62
2021/12/02 10:44:29;;;;;;;1.17;0.20;;;20.70;28.40;21.20;92298.00;;;;10354578;28;45215;-62
2021/12/02 10:49:45;;;;;;;1.13;0.20;;;20.70;28.40;21.20;92292.00;;;;10352866;28;46249;-62
2021/12/02 10:55:01;;;;;;;1.38;0.30;;;20.80;28.40;21.20;92291.00;;;;10355065;28;46341;-62
2021/12/02 11:00:12;;;;;;;1.45;0.20;;;20.70;28.30;21.20;92278.00;;;;10369105;28;45341;-62
2021/12/02 11:05:22;;;;;;;0.50;0.20;;;20.70;28.30;21.20;92276.00;;;;10353882;28;46105;-63
2021/12/02 11:10:25;;;;;;;2.03;0.30;;;20.70;28.20;21.20;92274.00;;;;10353169;28;45472;-62
2021/12/02 11:15:29;;;;;;;1.05;0.20;;;20.70;28.10;21.20;92272.00;;;;10353329;28;45216;-64
2021/12/02 11:20:41;;;;;;;0.52;0.10;;;20.70;28.00;21.30;92278.00;;;;10351011;28;47028;-63
2021/12/02 11:26:05;;;;;;;0.20;0.10;;;20.80;28.00;21.30;92271.00;;;;10271414;28;47961;-63
2021/12/02 11:31:18;;;;;;;0.75;0.10;;;20.70;28.00;21.30;92259.00;;;;10287993;28;45469;-64
2021/12/02 11:36:22;;;;;;;1.75;0.10;;;20.80;28.00;21.20;92254.00;;;;10287535;28;47599;-63
2021/12/02 11:41:24;;;;;;;0.80;0.20;;;20.70;28.10;21.30;92241.00;;;;10287675;28;45284;-63
2021/12/02 11:46:25;;;;;;;0.73;0.20;;;20.80;28.10;21.20;92246.00;;;;10286721;28;47517;-62
2021/12/02 11:51:26;;;;;;;1.17;0.10;;;20.80;28.10;21.20;92237.00;;;;10287656;28;46320;-62
2021/12/02 11:56:27;;;;;;;0.30;0.10;;;20.80;27.90;21.20;92242.00;;;;10286368;28;46948;-61
2021/12/02 12:01:28;;;;;;;0.50;0.10;;;20.80;28.00;21.40;92233.00;;;;10296042;28;48352;-61
2021/12/02 12:06:35;;;;;;;0.32;0.20;;;20.90;28.50;21.50;92236.00;;;;10277410;28;47538;-62
2021/12/02 12:11:38;;;;;;;1.02;0.30;;;20.90;28.40;21.60;92220.00;;;;10261310;28;47004;-61
2021/12/02 12:16:48;;;;;;;0.93;0.10;;;21.00;28.30;21.60;92217.00;;;;10277394;28;45214;-61
2021/12/02 12:22:00;;;;;;;0.52;0.10;;;21.10;28.20;21.70;92233.00;;;;10261760;28;46911;-61
2021/12/02 12:27:24;;;;;;;0.45;0.10;;;21.10;28.20;21.70;92231.00;;;;10278139;28;45306;-62
2021/12/02 12:32:39;;;;;;;0.50;0.10;;;21.20;28.20;21.70;92225.00;;;;10269731;28;46438;-61
2021/12/02 12:42:46;;;;;;;0.40;0.15;;;21.20;28.60;21.60;92243.00;;;;10345882;28;45133;-62
2021/12/02 12:47:53;;;;;;;1.52;0.20;;;21.20;29.50;21.50;92242.00;;;;10323433;28;45766;-64
2021/12/02 12:53:03;;;;;;;2.50;0.40;;;21.10;29.60;21.60;92256.00;;;;10316978;28;45435;-63
2021/12/02 12:58:25;;;;;;;0.40;0.10;;;21.10;29.70;21.60;92270.00;;;;10276788;28;46754;-60
2021/12/02 13:03:31;;;;;;;0.22;0.15;;;21.10;30.20;21.60;92265.00;;;;10276181;28;46013;-64
2021/12/02 13:08:43;;;;;;;1.08;0.25;;;21.10;30.20;21.60;92248.00;;;;10310801;28;45183;-62
2021/12/02 13:13:47;;;;;;;1.00;0.20;;;21.10;30.30;21.60;92247.00;;;;10302826;28;45302;-65
2021/12/02 13:18:58;;;;;;;0.82;0.13;;;21.10;30.80;21.60;92246.00;;;;10314904;28;45606;-61
2021/12/02 13:24:16;;;;;;;5.10;0.40;;;21.10;31.50;21.60;92237.00;;;;10350191;28;45571;-63
2021/12/02 13:29:23;;;;;;;0.70;0.10;;;21.10;31.00;21.70;92231.00;;;;10304058;28;47232;-66
2021/12/02 13:34:27;;;;;;;1.35;0.15;;;21.10;31.00;21.60;92240.00;;;;10278238;28;46961;-62
2021/12/02 13:39:42;;;;;;;1.35;0.15;;;21.10;31.40;21.60;92258.00;;;;10290431;28;45333;-60
2021/12/02 13:44:53;;;;;;;0.45;0.17;;;21.10;31.20;21.60;92255.00;;;;10291829;28;46458;-61
2021/12/02 13:49:57;;;;;;;0.65;0.20;;;21.10;31.40;21.60;92272.00;;;;10289816;28;45649;-62
2021/12/02 13:55:06;;;;;;;0.45;0.20;;;21.10;31.40;21.60;92287.00;;;;10291900;28;45234;-62
2021/12/02 14:00:25;;;;;;;0.30;0.00;;;21.10;31.50;21.60;92291.00;;;;10277048;28;47481;-60
2021/12/02 14:05:30;;;;;;;1.40;0.20;;;21.10;31.30;21.50;92296.00;;;;10322418;28;45256;-59
2021/12/02 14:10:34;;;;;;;1.08;0.30;;;21.10;31.40;21.50;92311.00;;;;10353925;28;46977;-62
2021/12/02 14:15:41;;;;;;;0.77;0.20;;;21.00;31.20;21.50;92309.00;;;;10353931;28;45401;-62
2021/12/02 14:21:00;;;;;;;1.30;0.35;;;21.00;31.00;21.50;92315.00;;;;10342130;28;45483;-65
2021/12/02 14:26:06;;;;;;;1.25;0.20;;;21.00;30.90;21.40;92335.00;;;;10316945;28;48168;-62
2021/12/02 14:31:22;;;;;;;9.07;2.60;;;21.00;29.90;21.50;92337.00;;;;10278682;28;47508;-62
2021/12/02 14:36:26;;;;;;;11.55;4.50;;;21.00;29.40;21.40;92344.00;;;;10350241;28;45467;-62
2021/12/02 14:41:36;;;;;;;11.20;4.28;;;20.90;29.30;21.40;92352.00;;;;10351295;28;45528;-66
2021/12/02 14:46:48;;;;;;;9.80;3.30;;;21.00;29.20;21.40;92372.00;;;;10353899;28;46520;-62
2021/12/02 14:51:55;;;;;;;8.57;3.05;;;21.00;29.20;21.30;92357.00;;;;10355319;28;46650;-63
2021/12/02 14:56:57;;;;;;;10.38;3.97;;;20.90;28.40;21.30;92366.00;;;;10369314;28;48029;-62
2021/12/02 15:02:06;;;;;;;7.25;2.80;;;20.90;28.20;21.30;92373.00;;;;10353840;28;47256;-63
2021/12/02 15:07:25;;;;;;;8.23;2.28;;;20.90;28.30;21.40;92386.00;;;;10348599;28;47135;-63
2021/12/02 15:12:35;;;;;;;5.68;2.08;;;20.90;28.60;21.40;92401.00;;;;10342268;28;48246;-62
2021/12/02 15:17:43;;;;;;;3.65;1.50;;;20.90;28.70;21.40;92399.00;;;;10368768;28;46383;-61
2021/12/02 15:23:03;;;;;;;4.22;1.20;;;20.90;28.40;21.30;92416.00;;;;10353838;28;47034;-62
2021/12/02 15:28:22;;;;;;;3.97;1.33;;;20.90;27.80;21.20;92427.00;;;;10368256;28;45237;-61
2021/12/02 15:33:40;;;;;;;2.45;1.20;;;20.90;27.80;21.20;92438.00;;;;10351308;28;47304;-62
2021/12/02 15:38:45;;;;;;;4.55;1.58;;;20.80;27.70;21.20;92445.00;;;;10342349;28;45765;-62
2021/12/02 15:44:08;;;;;;;2.70;1.10;;;20.80;27.80;21.20;92463.00;;;;10351617;28;47532;-62
2021/12/02 15:49:11;;;;;;;2.78;1.00;;;20.80;27.70;21.20;92482.00;;;;10320065;28;45518;-62
2021/12/02 15:54:11;;;;;;;3.50;1.05;;;20.80;27.80;21.20;92482.00;;;;10248736;28;47516;-63
2021/12/02 15:59:14;;;;;;;9.65;3.47;;;20.80;27.80;21.20;92494.00;;;;10347891;28;46612;-67
2021/12/02 16:04:59;;;;;;;11.73;5.07;;;20.80;27.90;21.20;92508.00;;;;10352487;28;46487;-61
2021/12/02 16:14:40;;;;;;;10.25;3.40;;;20.80;28.00;21.30;92514.00;;;;10338920;28;45199;-64
2021/12/02 16:19:40;;;;;;;11.02;2.90;;;20.80;28.30;21.40;92538.00;;;;10364589;28;46908;-63
2021/12/02 16:24:41;;;;;;;6.88;2.20;;;20.80;28.30;21.40;92561.00;;;;10363872;28;45234;-62
2021/12/02 16:29:42;;;;;;;8.85;2.28;;;20.90;28.50;21.40;92577.00;;;;10366465;28;46720;-61
2021/12/02 16:34:42;;;;;;;4.25;1.70;;;20.80;28.40;21.40;92585.00;;;;10334659;28;47510;-67
2021/12/02 16:40:11;;;;;;;3.75;1.20;;;20.90;28.50;21.40;92604.00;;;;10363347;28;46800;-63
2021/12/02 16:45:16;;;;;;;3.03;1.00;;;20.90;28.30;21.50;92609.00;;;;10348495;28;47311;-62
2021/12/02 16:50:19;;;;;;;2.72;1.00;;;20.90;28.20;21.40;92611.00;;;;10358037;28;45404;-60
2021/12/02 16:55:22;;;;;;;2.30;0.95;;;20.90;28.00;21.30;92634.00;;;;10316578;28;47256;-61
2021/12/02 17:00:36;;;;;;;2.35;0.82;;;20.90;27.90;21.30;92639.00;;;;10313889;28;45343;-61
2021/12/02 17:05:42;;;;;;;4.90;2.15;;;20.80;26.60;21.20;92649.00;;;;10321676;28;45688;-62
2021/12/02 17:10:45;;;;;;;13.07;4.80;;;20.80;26.20;21.20;92676.00;;;;10356337;28;47068;-61
2021/12/02 17:15:47;;;;;;;10.07;3.63;;;20.80;26.20;21.20;92677.00;;;;10372449;28;45385;-61
2021/12/02 17:20:49;;;;;;;8.45;2.58;;;20.80;26.00;21.20;92691.00;;;;10356462;28;46840;-61
2021/12/02 17:25:53;;;;;;;8.30;2.55;;;20.70;26.00;21.10;92704.00;;;;10355284;28;46516;-62
2021/12/02 17:30:54;;;;;;;14.35;5.38;;;20.70;25.90;21.10;92714.00;;;;10355954;28;46223;-61
2021/12/02 17:35:55;;;;;;;11.50;4.15;;;20.70;26.00;21.10;92728.00;;;;10356607;28;45400;-65
2021/12/02 17:40:57;;;;;;;8.10;3.00;;;20.70;26.00;21.10;92742.00;;;;10372486;28;45565;-63
2021/12/02 17:45:59;;;;;;;7.15;2.55;;;20.60;26.00;21.10;92761.00;;;;10356246;28;45415;-62
2021/12/02 17:50:59;;;;;;;7.05;1.85;;;20.60;26.10;21.10;92759.00;;;;10355807;28;45216;-59
2021/12/02 17:56:00;;;;;;;3.67;1.60;;;20.70;26.00;21.00;92751.00;;;;10355345;28;45823;-63
2021/12/02 18:01:03;;;;;;;4.55;1.27;;;20.60;26.10;21.10;92769.00;;;;10354852;28;48306;-61
2021/12/02 18:06:03;;;;;;;4.50;1.30;;;20.60;26.50;21.20;92772.00;;;;10354764;28;45184;-61
2021/12/02 18:11:04;;;;;;;4.55;1.13;;;20.60;26.60;21.20;92791.00;;;;10370786;28;46225;-60
2021/12/02 18:16:05;;;;;;;3.00;1.17;;;20.70;26.70;21.20;92809.00;;;;10370438;28;45282;-61
2021/12/02 18:21:09;;;;;;;2.80;1.20;;;20.70;26.90;21.30;92802.00;;;;10371146;28;45392;-61
2021/12/02 18:26:10;;;;;;;3.33;1.13;;;20.70;26.90;21.30;92808.00;;;;10354732;28;46499;-61
2021/12/02 18:31:12;;;;;;;2.65;1.00;;;20.80;27.00;21.30;92817.00;;;;10370906;28;45218;-61
2021/12/02 18:36:14;;;;;;;2.35;1.00;;;20.80;27.00;21.30;92828.00;;;;10353604;28;46136;-61
2021/12/02 18:41:14;;;;;;;2.00;0.98;;;20.80;27.00;21.30;92838.00;;;;10353216;28;47965;-61
2021/12/02 18:46:15;;;;;;;3.10;0.98;;;20.80;27.00;21.30;92829.00;;;;10368483;28;45320;-61
2021/12/02 18:51:18;;;;;;;2.33;0.68;;;20.80;27.00;21.30;92842.00;;;;10370159;28;45275;-61
2021/12/02 18:56:18;;;;;;;2.15;0.80;;;20.80;27.00;21.30;92842.00;;;;10352316;28;45456;-61
2021/12/02 19:01:22;;;;;;;2.25;0.90;;;20.80;27.00;21.30;92840.00;;;;10380055;22;45534;-60
2021/12/02 19:27:27;;;;;;;1.92;0.75;;;20.80;27.00;21.30;92897.00;;;;10299088;28;45148;-59
2021/12/02 19:32:32;;;;;;;1.95;0.70;;;20.80;27.00;21.30;92921.00;;;;10296142;28;47051;-58
2021/12/02 19:37:33;;;;;;;1.13;0.70;;;20.80;27.00;21.30;92916.00;;;;10313525;28;45189;-60
2021/12/02 19:42:34;;;;;;;1.20;0.70;;;20.80;27.00;21.30;92923.00;;;;10313703;28;45407;-59
2021/12/02 19:47:35;;;;;;;1.77;0.90;;;20.80;26.90;21.30;92930.00;;;;10295566;28;45350;-58
2021/12/02 19:52:36;;;;;;;2.00;0.70;;;20.80;26.80;21.30;92934.00;;;;10295801;28;45299;-57
2021/12/02 19:57:37;;;;;;;1.90;0.90;;;20.80;26.80;21.30;92936.00;;;;10312607;28;45299;-58
2021/12/02 20:02:38;;;;;;;1.52;0.88;;;20.80;26.80;21.30;92935.00;;;;10312763;28;46343;-58
2021/12/02 20:07:39;;;;;;;1.58;0.52;;;20.80;26.70;21.30;92947.00;;;;10278376;28;47288;-58
2021/12/02 20:12:40;;;;;;;1.00;0.60;;;20.80;26.70;21.30;92941.00;;;;10295510;28;45405;-59
2021/12/02 20:17:41;;;;;;;0.82;0.50;;;20.80;26.70;21.30;92970.00;;;;10312185;28;45321;-57
2021/12/02 20:22:43;;;;;;;1.80;0.60;;;20.80;26.70;21.30;92982.00;;;;10301441;28;47694;-57
2021/12/02 20:27:46;;;;;;;0.90;0.60;;;20.80;26.70;21.30;92979.00;;;;10301960;28;45183;-58
2021/12/02 20:32:47;;;;;;;0.93;0.50;;;20.80;26.60;21.30;92994.00;;;;10319294;28;46263;-58
2021/12/02 20:37:48;;;;;;;1.77;0.60;;;20.80;26.60;21.30;92999.00;;;;10318500;28;45239;-57
2021/12/02 20:42:50;;;;;;;0.93;0.50;;;20.80;26.60;21.30;93010.00;;;;10319161;28;46260;-58
2021/12/02 20:47:54;;;;;;;0.95;0.50;;;20.80;26.60;21.30;93018.00;;;;10284640;28;46970;-60
2021/12/02 20:52:57;;;;;;;0.60;0.50;;;20.80;26.60;21.30;93015.00;;;;10317569;28;45238;-61
2021/12/02 20:57:58;;;;;;;0.82;0.38;;;20.80;26.60;21.30;93029.00;;;;10316154;28;46988;-57
2021/12/02 21:03:01;;;;;;;1.20;0.50;;;20.80;26.60;21.40;93034.00;;;;10318573;28;45347;-58
2021/12/02 21:08:04;;;;;;;0.63;0.45;;;20.80;26.60;21.30;93044.00;;;;10299960;28;47208;-57
2021/12/02 21:13:06;;;;;;;0.70;0.50;;;20.90;26.60;21.30;93059.00;;;;10318277;28;45236;-58
2021/12/02 21:18:07;;;;;;;1.05;0.60;;;20.80;26.40;21.30;93059.00;;;;10299699;28;45384;-58
2021/12/02 21:23:09;;;;;;;0.57;0.38;;;20.80;26.40;21.30;93067.00;;;;10317813;28;45065;-62
2021/12/02 21:28:10;;;;;;;0.93;0.47;;;20.80;26.40;21.40;93092.00;;;;10300020;28;45434;-58
2021/12/02 21:33:10;;;;;;;0.63;0.50;;;20.80;26.50;21.30;93099.00;;;;10295951;28;45035;-58
2021/12/02 21:38:12;;;;;;;0.30;0.30;;;20.80;26.30;21.20;93093.00;;;;10314390;28;45650;-58
2021/12/02 21:43:13;;;;;;;0.70;0.32;;;20.80;26.30;21.20;93097.00;;;;10299706;28;47311;-62
2021/12/02 21:48:14;;;;;;;1.50;0.40;;;20.70;26.30;21.20;93098.00;;;;10298749;28;46202;-60
2021/12/02 21:53:15;;;;;;;0.70;0.40;;;20.70;26.30;21.20;93094.00;;;;10299816;28;46367;-58
2021/12/02 21:58:17;;;;;;;2.03;0.30;;;20.70;26.30;21.20;93105.00;;;;10281868;28;47200;-59
2021/12/02 22:03:18;;;;;;;0.68;0.40;;;20.70;26.30;21.10;93118.00;;;;10315583;28;45313;-59
2021/12/02 22:08:19;;;;;;;0.82;0.35;;;20.60;26.20;21.10;93110.00;;;;10334189;28;45405;-59
2021/12/02 22:13:19;;;;;;;0.73;0.50;;;20.60;26.80;21.10;93118.00;;;;10336515;28;45376;-60
2021/12/02 22:18:20;;;;;;;1.10;0.32;;;20.60;26.20;21.10;93114.00;;;;10314759;28;45333;-60
2021/12/02 22:23:21;;;;;;;1.05;0.47;;;20.60;26.20;21.10;93114.00;;;;10297384;28;45150;-59
2021/12/02 22:28:22;;;;;;;0.80;0.40;;;20.60;26.20;21.10;93130.00;;;;10296717;28;46697;-60
2021/12/02 22:33:23;;;;;;;0.70;0.40;;;20.60;26.10;21.00;93138.00;;;;10297464;28;46508;-59
2021/12/02 22:38:25;;;;;;;0.73;0.40;;;20.50;26.10;21.00;93129.00;;;;10296866;28;46307;-59
2021/12/02 22:43:26;;;;;;;0.63;0.47;;;20.50;26.10;21.00;93153.00;;;;10295839;28;46328;-61
2021/12/02 22:48:27;;;;;;;0.60;0.40;;;20.50;26.00;21.00;93164.00;;;;10312167;28;47179;-60
2021/12/02 22:53:29;;;;;;;1.58;0.30;;;20.50;26.10;21.00;93168.00;;;;10297477;28;45382;-59
2021/12/02 22:58:30;;;;;;;0.93;0.40;;;20.50;26.00;21.00;93164.00;;;;10296447;28;46976;-59
2021/12/02 23:03:31;;;;;;;1.77;0.57;;;20.50;26.00;20.90;93143.00;;;;10296338;28;46863;-60